Time;durP1;ratioP1;P1;durP2;ratioP2;P2;SDS_P1;SDS_P2;PMS_P1;PMS_P2;Temp;Humidity;BMP_temperature;BMP_pressure;BME280_temperature;BME280_humidity;BME280_pressure;Samples;Min_cycle;Max_cycle;Signal;HPM_P1;HPM_P2
2023/05/25 00:01:04;;;;;;;6.00;3.00;;;23.50;99.90;;;;;;4916959;29;20267;-89
2023/05/25 00:03:39;;;;;;;9.77;3.10;;;23.60;99.90;;;;;;4898171;29;20227;-90
2023/05/25 00:06:10;;;;;;;8.20;3.30;;;23.50;99.90;;;;;;4932665;29;20204;-90
2023/05/25 00:08:42;;;;;;;6.03;2.77;;;23.30;99.90;;;;;;4935862;29;20235;-89
2023/05/25 00:11:18;;;;;;;4.43;2.60;;;23.50;99.90;;;;;;4937620;29;20555;-90
2023/05/25 00:13:52;;;;;;;3.57;2.53;;;23.50;99.90;;;;;;4920897;29;20308;-90
2023/05/25 00:16:24;;;;;;;3.70;2.60;;;23.50;99.90;;;;;;4916066;29;20676;-90
2023/05/25 00:18:56;;;;;;;6.20;2.83;;;23.40;99.90;;;;;;4897895;29;20216;-90
2023/05/25 00:21:27;;;;;;;4.90;2.43;;;23.40;99.90;;;;;;4898661;29;20305;-88
2023/05/25 00:23:59;;;;;;;5.43;2.77;;;23.20;99.90;;;;;;4913800;29;20213;-89
2023/05/25 00:26:33;;;;;;;5.57;2.80;;;22.90;99.90;;;;;;4903397;29;20224;-90
2023/05/25 00:29:05;;;;;;;6.20;2.80;;;22.80;99.90;;;;;;4897488;29;20306;-88
2023/05/25 00:31:37;;;;;;;4.23;2.60;;;22.90;99.90;;;;;;4905128;29;20223;-90
2023/05/25 00:34:09;;;;;;;4.57;2.60;;;23.00;99.90;;;;;;4914017;29;20807;-89
2023/05/25 00:36:42;;;;;;;4.73;2.87;;;23.10;99.90;;;;;;4934207;29;20236;-88
2023/05/25 00:39:13;;;;;;;4.53;2.87;;;23.00;99.90;;;;;;4934437;29;20749;-89
2023/05/25 00:41:47;;;;;;;3.53;2.53;;;23.00;99.90;;;;;;4916347;29;20241;-89
2023/05/25 00:44:20;;;;;;;6.77;2.73;;;22.90;99.90;;;;;;4917387;29;20240;-89
2023/05/25 00:46:52;;;;;;;6.60;3.10;;;22.70;99.90;;;;;;4917625;29;20254;-89
2023/05/25 00:49:26;;;;;;;5.30;3.00;;;22.60;99.90;;;;;;4897863;29;20212;-89
2023/05/25 00:51:58;;;;;;;5.50;2.83;;;22.30;99.90;;;;;;4904542;29;20213;-92
2023/05/25 00:54:32;;;;;;;6.70;3.10;;;22.40;99.90;;;;;;4912427;29;20220;-91
2023/05/25 00:57:08;;;;;;;4.37;2.73;;;22.70;99.90;;;;;;4920985;29;20237;-91
2023/05/25 00:59:43;;;;;;;6.70;3.00;;;23.00;99.90;;;;;;4931418;29;20208;-91
2023/05/25 01:02:16;;;;;;;5.03;2.70;;;23.50;99.90;;;;;;4924506;29;20208;-92
2023/05/25 01:04:51;;;;;;;3.07;2.37;;;24.00;99.90;;;;;;4918538;29;20213;-91
2023/05/25 01:07:24;;;;;;;5.20;2.77;;;24.00;99.90;;;;;;4919697;29;20291;-91
2023/05/25 01:09:59;;;;;;;6.20;3.00;;;24.30;99.90;;;;;;4924185;29;20205;-91
2023/05/25 01:12:33;;;;;;;5.10;2.70;;;24.10;99.90;;;;;;4928101;29;20312;-90
2023/05/25 01:15:06;;;;;;;2.93;2.30;;;24.00;99.90;;;;;;4927424;29;20213;-91
2023/05/25 01:17:38;;;;;;;4.60;2.97;;;24.10;99.90;;;;;;4915254;29;20268;-96
2023/05/25 01:20:11;;;;;;;4.30;2.70;;;23.60;99.90;;;;;;4921745;29;20235;-93
2023/05/25 01:22:52;;;;;;;6.57;3.00;;;23.70;99.90;;;;;;4911790;29;20242;-92
2023/05/25 01:25:30;;;;;;;5.43;2.83;;;24.10;99.90;;;;;;4918606;29;20580;-93
2023/05/25 01:28:08;;;;;;;6.67;3.30;;;24.10;99.90;;;;;;4924771;29;20753;-92
2023/05/25 01:30:43;;;;;;;5.27;3.00;;;24.00;99.90;;;;;;4911524;29;20284;-93
2023/05/25 01:33:17;;;;;;;6.00;2.83;;;23.70;99.90;;;;;;4914751;29;20213;-91
2023/05/25 01:35:49;;;;;;;5.17;2.37;;;24.00;99.90;;;;;;4912733;29;20213;-94
2023/05/25 01:38:23;;;;;;;4.20;3.07;;;24.10;99.90;;;;;;4913216;29;20272;-93
2023/05/25 01:40:54;;;;;;;6.57;2.80;;;24.40;99.90;;;;;;4904715;29;20233;-93
2023/05/25 01:43:27;;;;;;;6.77;3.23;;;24.00;99.90;;;;;;4902047;29;20217;-90
2023/05/25 01:46:07;;;;;;;6.20;3.13;;;23.80;99.90;;;;;;4908118;29;20235;-93
2023/05/25 01:48:46;;;;;;;6.50;3.20;;;23.40;99.90;;;;;;4920001;29;20209;-93
2023/05/25 01:51:27;;;;;;;6.50;3.57;;;23.30;99.90;;;;;;4920907;29;20571;-93
2023/05/25 01:54:03;;;;;;;7.20;3.20;;;23.10;99.90;;;;;;4909617;29;20254;-93
2023/05/25 01:56:36;;;;;;;8.03;3.53;;;22.90;99.90;;;;;;4909127;29;20214;-92
2023/05/25 01:59:11;;;;;;;6.07;3.47;;;22.80;99.90;;;;;;4916910;29;20209;-93
2023/05/25 02:01:47;;;;;;;6.00;3.00;;;22.80;99.90;;;;;;4912418;29;20252;-91
2023/05/25 02:04:23;;;;;;;6.30;3.27;;;22.40;99.90;;;;;;4915137;29;20712;-92
2023/05/25 02:06:55;;;;;;;9.33;3.60;;;21.90;99.90;;;;;;4917200;29;20221;-92
2023/05/25 02:09:28;;;;;;;5.63;2.83;;;21.50;99.90;;;;;;4916410;29;20220;-93
2023/05/25 02:12:00;;;;;;;8.40;3.37;;;21.20;99.90;;;;;;4900280;29;20237;-92
2023/05/25 02:14:33;;;;;;;5.80;2.73;;;20.80;99.90;;;;;;4915211;29;20625;-93
2023/05/25 02:17:04;;;;;;;5.70;3.03;;;20.60;99.90;;;;;;4909828;29;20219;-92
2023/05/25 02:19:37;;;;;;;5.33;3.07;;;20.40;99.90;;;;;;4918703;29;20308;-95
2023/05/25 02:22:08;;;;;;;5.93;3.10;;;20.20;99.90;;;;;;4911217;29;20325;-94
2023/05/25 02:24:42;;;;;;;4.77;3.10;;;20.10;99.90;;;;;;4914958;29;20212;-92
2023/05/25 02:27:13;;;;;;;6.47;3.60;;;20.00;99.90;;;;;;4915413;29;20292;-91
2023/05/25 02:29:45;;;;;;;4.67;3.07;;;20.00;99.90;;;;;;4913168;29;20219;-93
2023/05/25 02:32:17;;;;;;;5.60;2.87;;;19.90;99.90;;;;;;4916786;29;20220;-93
2023/05/25 02:34:48;;;;;;;5.57;3.17;;;19.80;99.90;;;;;;4913481;29;20201;-92
2023/05/25 02:37:20;;;;;;;5.47;3.30;;;19.80;99.90;;;;;;4920855;29;20189;-93
2023/05/25 02:39:54;;;;;;;5.27;3.27;;;19.70;99.90;;;;;;4573514;29;10000326;-93
2023/05/25 02:42:27;;;;;;;5.53;3.30;;;19.70;99.90;;;;;;4916631;29;20228;-94
2023/05/25 02:44:59;;;;;;;5.90;3.07;;;19.60;99.90;;;;;;4920142;29;20236;-92
2023/05/25 02:47:30;;;;;;;6.80;3.57;;;19.70;99.90;;;;;;4922481;29;20224;-89
2023/05/25 02:50:02;;;;;;;5.77;3.37;;;19.60;99.90;;;;;;4911282;29;20204;-91
2023/05/25 02:52:33;;;;;;;5.73;3.27;;;19.50;99.90;;;;;;4917024;29;20220;-92
2023/05/25 02:55:08;;;;;;;3.13;2.77;;;19.50;99.90;;;;;;4926618;29;20280;-96
2023/05/25 02:57:41;;;;;;;4.00;2.93;;;19.50;99.90;;;;;;4927312;29;20208;-95
2023/05/25 03:00:14;;;;;;;4.43;3.17;;;19.50;99.90;;;;;;4919050;29;20211;-96
2023/05/25 03:02:47;;;;;;;7.00;3.67;;;19.40;99.90;;;;;;4922067;29;20248;-96
2023/05/25 03:07:54;;;;;;;6.00;3.50;;;19.20;99.90;;;;;;5173989;23;20216;-96
2023/05/25 03:10:29;;;;;;;10.47;3.50;;;19.20;99.90;;;;;;4873110;29;20212;-94
2023/05/25 03:13:00;;;;;;;7.07;3.40;;;19.10;99.90;;;;;;4877580;29;20205;-96
2023/05/25 03:15:33;;;;;;;6.60;4.00;;;19.10;99.90;;;;;;4976320;23;20400;-95
2023/05/25 03:18:05;;;;;;;6.37;3.63;;;19.10;99.90;;;;;;4890225;29;20225;-93
2023/05/25 03:20:37;;;;;;;7.07;3.87;;;19.10;99.90;;;;;;4886701;29;20289;-91
2023/05/25 03:23:09;;;;;;;7.10;3.73;;;19.10;99.90;;;;;;4876105;29;20266;-91
2023/05/25 03:25:43;;;;;;;8.93;4.03;;;19.00;99.90;;;;;;4882342;29;20209;-90
2023/05/25 03:28:15;;;;;;;6.70;3.80;;;18.90;99.90;;;;;;4887546;29;20218;-90
2023/05/25 03:30:47;;;;;;;5.23;3.43;;;18.80;99.90;;;;;;4884380;29;20209;-89
2023/05/25 03:33:19;;;;;;;11.13;3.97;;;18.80;99.90;;;;;;4886364;29;20234;-89
2023/05/25 03:35:50;;;;;;;5.50;3.10;;;18.60;99.90;;;;;;4874970;29;20784;-90
2023/05/25 03:38:21;;;;;;;4.57;3.47;;;18.50;99.90;;;;;;4880946;29;20237;-89
2023/05/25 03:40:54;;;;;;;7.13;3.50;;;18.50;99.90;;;;;;4872030;29;20214;-89
2023/05/25 03:43:26;;;;;;;6.53;3.20;;;18.40;99.90;;;;;;4865068;29;20246;-89
2023/05/25 03:45:58;;;;;;;5.40;3.13;;;18.30;99.90;;;;;;4881110;29;20218;-91
2023/05/25 03:48:29;;;;;;;9.47;3.40;;;18.20;99.90;;;;;;4872134;29;20281;-89
2023/05/25 03:51:01;;;;;;;7.77;3.57;;;18.10;99.90;;;;;;4872904;29;20211;-90
2023/05/25 03:53:32;;;;;;;5.90;3.33;;;18.00;99.90;;;;;;4869216;29;20851;-91
2023/05/25 03:56:05;;;;;;;5.83;3.00;;;17.80;99.90;;;;;;4872688;29;20206;-91
2023/05/25 03:58:39;;;;;;;7.20;3.30;;;17.80;99.90;;;;;;4874153;29;20241;-91
2023/05/25 04:01:12;;;;;;;4.93;3.07;;;17.70;99.90;;;;;;4871664;29;20235;-90
2023/05/25 04:03:43;;;;;;;5.43;2.97;;;17.60;99.90;;;;;;4885166;29;20602;-90
2023/05/25 04:06:18;;;;;;;4.83;3.10;;;17.50;99.90;;;;;;4902635;29;20229;-91
2023/05/25 04:08:51;;;;;;;7.37;3.00;;;17.60;99.90;;;;;;4870631;29;20225;-91
2023/05/25 04:11:42;;;;;;;4.20;3.00;;;17.50;99.90;;;;;;4900723;29;20241;-90
2023/05/25 04:14:14;;;;;;;6.87;3.47;;;17.30;99.90;;;;;;4885391;29;20671;-91
2023/05/25 04:16:46;;;;;;;4.17;2.90;;;17.30;99.90;;;;;;4875113;29;20309;-90
2023/05/25 04:19:41;;;;;;;4.00;2.73;;;17.20;99.90;;;;;;4891394;29;20249;-93
2023/05/25 04:22:13;;;;;;;4.97;2.87;;;17.10;99.90;;;;;;4888133;29;20260;-90
2023/05/25 04:24:48;;;;;;;5.60;3.03;;;17.00;99.90;;;;;;4887218;29;20676;-91
2023/05/25 04:27:25;;;;;;;6.20;3.03;;;16.90;99.90;;;;;;4899261;29;20195;-92
2023/05/25 04:29:59;;;;;;;6.80;2.97;;;16.80;99.90;;;;;;4891991;29;20277;-90
2023/05/25 04:32:38;;;;;;;6.03;3.33;;;16.90;99.90;;;;;;4889667;29;20197;-92
2023/05/25 04:35:25;;;;;;;7.03;3.00;;;16.80;99.90;;;;;;4876701;29;20199;-92
2023/05/25 04:38:01;;;;;;;4.97;2.73;;;16.80;99.90;;;;;;4886930;29;20198;-93
2023/05/25 04:40:35;;;;;;;4.57;3.23;;;16.70;99.90;;;;;;4904921;29;20203;-91
2023/05/25 04:43:36;;;;;;;5.33;3.00;;;16.70;99.90;;;;;;4905192;29;20246;-92
2023/05/25 04:46:26;;;;;;;3.83;2.80;;;16.60;99.90;;;;;;4895546;29;20213;-92
2023/05/25 04:49:03;;;;;;;6.37;3.13;;;16.60;99.90;;;;;;4896174;29;20292;-90
2023/05/25 04:51:41;;;;;;;4.63;3.23;;;16.60;99.90;;;;;;4891952;29;20217;-91
2023/05/25 04:57:18;;;;;;;3.97;2.80;;;16.50;99.90;;;;;;4881117;29;20414;-91
2023/05/25 04:59:54;;;;;;;5.20;2.63;;;16.50;99.90;;;;;;4892354;29;20574;-91
2023/05/25 05:02:27;;;;;;;8.77;3.10;;;16.40;99.90;;;;;;4889113;29;20964;-91
2023/05/25 05:07:55;;;;;;;5.07;2.70;;;16.40;99.90;;;;;;4896722;29;20230;-91
2023/05/25 05:10:27;;;;;;;4.23;2.90;;;16.30;99.90;;;;;;4875803;29;20215;-91
2023/05/25 05:12:59;;;;;;;4.37;2.77;;;16.30;99.90;;;;;;4882236;29;20218;-91
2023/05/25 05:15:33;;;;;;;5.70;3.30;;;16.20;99.90;;;;;;4885487;29;20293;-91
2023/05/25 05:18:05;;;;;;;5.87;3.07;;;16.10;99.90;;;;;;4878568;29;20258;-91
2023/05/25 05:20:36;;;;;;;4.90;2.87;;;16.10;99.90;;;;;;4879111;29;20198;-90
2023/05/25 05:23:08;;;;;;;5.53;3.00;;;16.00;99.90;;;;;;4893032;29;20263;-91
2023/05/25 05:25:40;;;;;;;4.67;3.43;;;16.00;99.90;;;;;;4895789;29;20240;-92
2023/05/25 05:28:12;;;;;;;4.97;2.73;;;15.80;99.90;;;;;;4892717;29;20198;-92
2023/05/25 05:30:46;;;;;;;4.80;2.90;;;15.80;99.90;;;;;;4889637;29;20223;-92
2023/05/25 05:33:18;;;;;;;5.87;2.57;;;15.70;99.90;;;;;;4880210;29;20229;-91
2023/05/25 05:35:51;;;;;;;9.23;3.30;;;15.70;99.90;;;;;;4879317;29;20222;-90
2023/05/25 05:38:22;;;;;;;4.20;3.30;;;15.60;99.90;;;;;;4877364;29;20569;-90
2023/05/25 05:40:54;;;;;;;4.73;2.80;;;15.50;99.90;;;;;;4879069;29;20218;-90
2023/05/25 05:43:27;;;;;;;3.73;3.20;;;15.40;99.90;;;;;;4878220;29;20324;-91
2023/05/25 05:46:05;;;;;;;4.73;2.97;;;15.40;99.90;;;;;;4880913;29;20217;-90
2023/05/25 05:48:39;;;;;;;4.23;2.73;;;15.30;99.90;;;;;;4877661;29;20217;-91
2023/05/25 05:51:11;;;;;;;7.00;3.60;;;15.30;99.90;;;;;;4871081;29;20206;-89
2023/05/25 05:53:44;;;;;;;4.03;2.60;;;15.20;99.90;;;;;;4883380;29;20218;-91
2023/05/25 05:56:20;;;;;;;6.20;3.63;;;15.20;99.90;;;;;;4878090;29;20206;-91
2023/05/25 05:58:55;;;;;;;4.90;3.03;;;15.20;99.90;;;;;;4865498;29;20221;-91
2023/05/25 06:01:33;;;;;;;7.97;3.90;;;15.20;99.90;;;;;;4875766;29;20233;-90
2023/05/25 06:04:06;;;;;;;5.27;3.90;;;15.10;99.90;;;;;;4862683;29;20242;-92
2023/05/25 06:06:39;;;;;;;4.57;3.27;;;15.00;99.90;;;;;;4881111;29;20214;-91
2023/05/25 06:09:11;;;;;;;7.83;3.40;;;15.00;99.90;;;;;;4874932;29;20240;-91
2023/05/25 06:11:43;;;;;;;4.97;3.00;;;14.90;99.90;;;;;;4872947;29;20657;-91
2023/05/25 06:14:16;;;;;;;7.00;3.20;;;14.80;99.90;;;;;;4863776;29;20861;-91
2023/05/25 06:16:50;;;;;;;5.23;3.73;;;14.70;99.90;;;;;;4864996;29;20218;-90
2023/05/25 06:19:24;;;;;;;4.23;3.00;;;14.60;99.90;;;;;;4879970;29;20233;-91
2023/05/25 06:21:57;;;;;;;4.60;3.20;;;14.60;99.90;;;;;;4874440;29;20214;-91
2023/05/25 06:24:30;;;;;;;8.77;3.43;;;14.50;99.90;;;;;;4865840;29;20246;-91
2023/05/25 06:27:02;;;;;;;4.23;3.47;;;14.50;99.90;;;;;;4884523;29;20256;-91
2023/05/25 06:29:33;;;;;;;6.73;3.40;;;14.50;99.90;;;;;;4876126;29;20226;-91
2023/05/25 06:32:09;;;;;;;6.10;3.10;;;14.50;99.90;;;;;;4865688;29;20234;-92
2023/05/25 06:34:40;;;;;;;6.57;3.50;;;14.50;99.90;;;;;;4861694;29;20613;-91
2023/05/25 06:37:13;;;;;;;4.87;3.23;;;14.50;99.90;;;;;;4911605;29;20273;-90
2023/05/25 06:39:45;;;;;;;5.10;3.30;;;14.40;99.90;;;;;;4881297;29;20241;-91
2023/05/25 06:42:18;;;;;;;5.50;3.37;;;14.40;99.90;;;;;;4892771;29;20221;-91
2023/05/25 06:44:50;;;;;;;7.50;3.53;;;14.30;99.90;;;;;;4873259;29;20223;-92
2023/05/25 06:47:23;;;;;;;4.57;3.57;;;14.30;99.90;;;;;;4880691;29;20282;-90
2023/05/25 06:49:55;;;;;;;6.57;3.23;;;14.30;99.90;;;;;;4866183;29;20206;-91
2023/05/25 06:52:30;;;;;;;6.67;3.23;;;14.30;99.90;;;;;;4878345;29;20217;-90
2023/05/25 06:55:02;;;;;;;4.57;3.27;;;14.20;99.90;;;;;;4876556;29;20214;-89
2023/05/25 06:57:34;;;;;;;5.03;3.40;;;14.20;99.90;;;;;;4875809;29;20206;-90
2023/05/25 07:00:10;;;;;;;6.63;3.30;;;14.20;99.90;;;;;;4861305;29;20211;-90
2023/05/25 07:02:45;;;;;;;5.83;3.63;;;14.20;99.90;;;;;;4874850;29;20233;-91
2023/05/25 07:05:17;;;;;;;7.93;3.47;;;14.20;99.90;;;;;;4882637;29;20309;-92
2023/05/25 07:07:51;;;;;;;5.43;3.30;;;14.20;99.90;;;;;;4874317;29;20229;-91
2023/05/25 07:10:23;;;;;;;6.33;3.50;;;14.20;99.90;;;;;;4880418;29;20319;-92
2023/05/25 07:12:55;;;;;;;5.00;3.40;;;14.20;99.90;;;;;;4883351;29;20233;-91
2023/05/25 07:15:26;;;;;;;5.13;3.20;;;14.10;99.90;;;;;;4897685;29;20229;-91
2023/05/25 07:18:00;;;;;;;7.87;3.43;;;14.10;99.90;;;;;;4879565;29;20278;-91
2023/05/25 07:20:32;;;;;;;6.43;2.87;;;14.10;99.90;;;;;;4880243;29;20237;-91
2023/05/25 07:23:04;;;;;;;9.17;3.30;;;14.10;99.90;;;;;;4880230;29;20206;-92
2023/05/25 07:25:36;;;;;;;5.80;2.97;;;14.10;99.90;;;;;;4886062;29;20206;-90
2023/05/25 07:28:08;;;;;;;7.17;3.10;;;14.10;99.90;;;;;;4866635;29;20274;-91
2023/05/25 07:30:40;;;;;;;9.60;3.70;;;14.00;99.90;;;;;;4882022;29;20217;-93
2023/05/25 07:33:14;;;;;;;6.07;3.13;;;14.00;99.90;;;;;;4898080;29;20229;-89
2023/05/25 07:35:45;;;;;;;7.20;3.13;;;14.00;99.90;;;;;;4896807;29;20246;-92
2023/05/25 07:38:17;;;;;;;7.63;3.10;;;14.00;99.90;;;;;;4888043;29;20278;-91
2023/05/25 07:40:49;;;;;;;8.40;2.80;;;13.90;99.90;;;;;;4883107;29;20214;-92
2023/05/25 07:43:21;;;;;;;6.50;3.00;;;13.90;99.90;;;;;;4880203;29;20214;-90
2023/05/25 07:45:52;;;;;;;3.77;3.03;;;13.90;99.90;;;;;;4872678;29;20688;-90
2023/05/25 07:48:26;;;;;;;6.10;3.10;;;13.90;99.90;;;;;;4870285;29;20209;-90
2023/05/25 07:50:57;;;;;;;6.33;2.87;;;13.80;99.90;;;;;;4893929;29;20212;-90
2023/05/25 07:53:28;;;;;;;7.83;3.00;;;13.80;99.90;;;;;;4876693;29;20219;-90
2023/05/25 07:56:00;;;;;;;4.97;2.90;;;13.80;99.90;;;;;;4872746;29;20222;-91
2023/05/25 07:58:33;;;;;;;6.53;2.97;;;13.80;99.90;;;;;;4859329;29;20305;-90
2023/05/25 08:01:05;;;;;;;5.53;2.73;;;13.70;99.90;;;;;;4876982;29;20309;-90
2023/05/25 08:03:39;;;;;;;7.77;3.13;;;13.70;99.90;;;;;;4870964;29;20219;-90
2023/05/25 08:06:17;;;;;;;6.97;3.03;;;13.60;99.90;;;;;;4875486;29;20625;-90
2023/05/25 08:08:49;;;;;;;6.10;2.70;;;13.60;99.90;;;;;;4882939;29;20310;-92
2023/05/25 08:11:26;;;;;;;5.43;2.83;;;13.60;99.90;;;;;;4862088;29;20211;-92
2023/05/25 08:13:58;;;;;;;8.80;2.93;;;13.60;99.90;;;;;;4883686;29;20213;-90
2023/05/25 08:16:30;;;;;;;6.70;2.80;;;13.50;99.90;;;;;;4878887;29;20257;-91
2023/05/25 08:19:04;;;;;;;8.63;3.60;;;13.40;99.90;;;;;;4882822;29;20581;-91
2023/05/25 08:21:37;;;;;;;7.17;3.00;;;13.30;99.90;;;;;;4869169;29;20668;-92
2023/05/25 08:24:10;;;;;;;6.53;3.03;;;13.30;99.90;;;;;;4882173;29;20244;-92
2023/05/25 08:26:42;;;;;;;5.93;3.30;;;13.20;99.90;;;;;;4879260;29;20221;-90
2023/05/25 08:29:25;;;;;;;7.73;2.70;;;13.20;99.90;;;;;;4878402;29;20274;-91
2023/05/25 08:31:57;;;;;;;6.07;2.80;;;13.20;99.90;;;;;;4879635;29;20262;-91
2023/05/25 08:34:31;;;;;;;5.23;3.03;;;13.10;99.90;;;;;;4875193;29;20263;-92
2023/05/25 08:37:03;;;;;;;7.90;3.03;;;13.10;99.90;;;;;;4867456;29;20569;-91
2023/05/25 08:39:34;;;;;;;7.20;3.00;;;13.00;99.90;;;;;;4871051;29;20238;-91
2023/05/25 08:42:08;;;;;;;8.23;2.97;;;12.90;99.90;;;;;;4867426;29;20222;-91
2023/05/25 08:44:40;;;;;;;12.10;3.00;;;12.90;99.90;;;;;;4882703;29;20683;-91
2023/05/25 08:47:15;;;;;;;5.97;3.00;;;12.80;99.90;;;;;;4863051;29;20226;-92
2023/05/25 08:49:51;;;;;;;4.53;3.13;;;12.80;99.90;;;;;;4886738;29;20210;-90
2023/05/25 08:52:24;;;;;;;6.23;3.23;;;12.80;99.90;;;;;;4882020;29;20213;-90
2023/05/25 08:54:59;;;;;;;5.43;3.17;;;12.80;99.90;;;;;;4879753;29;20232;-91
2023/05/25 08:57:38;;;;;;;6.93;3.00;;;12.70;99.90;;;;;;4876884;29;20210;-90
2023/05/25 09:00:13;;;;;;;7.17;2.90;;;12.70;99.90;;;;;;4892336;29;20281;-89
2023/05/25 09:02:51;;;;;;;7.10;3.27;;;12.70;99.90;;;;;;4882031;29;20217;-90
2023/05/25 09:05:25;;;;;;;6.10;3.27;;;12.60;99.90;;;;;;4866202;29;20250;-89
2023/05/25 09:07:59;;;;;;;6.00;3.20;;;12.60;99.90;;;;;;4864055;29;20206;-90
2023/05/25 09:10:33;;;;;;;5.47;2.97;;;12.60;99.90;;;;;;4876254;29;20238;-90
2023/05/25 09:13:06;;;;;;;8.13;3.60;;;12.60;99.90;;;;;;4861087;29;20217;-90
2023/05/25 09:15:40;;;;;;;8.53;3.93;;;12.50;99.90;;;;;;4892207;29;20272;-91
2023/05/25 09:18:12;;;;;;;6.77;3.50;;;12.40;99.90;;;;;;4897092;29;20667;-90
2023/05/25 09:20:47;;;;;;;6.53;3.30;;;12.40;99.90;;;;;;4887896;29;20293;-91
2023/05/25 09:23:20;;;;;;;7.50;3.73;;;12.40;99.90;;;;;;4889329;29;20272;-91
2023/05/25 09:25:53;;;;;;;5.80;3.60;;;12.40;99.90;;;;;;4878558;29;20819;-91
2023/05/25 09:28:25;;;;;;;8.70;4.20;;;12.30;99.90;;;;;;4863357;29;20215;-92
2023/05/25 09:30:57;;;;;;;6.60;3.60;;;12.30;99.90;;;;;;4888756;29;20220;-90
2023/05/25 09:33:28;;;;;;;6.80;3.60;;;12.30;99.90;;;;;;4898189;29;20243;-90
2023/05/25 09:36:03;;;;;;;8.53;3.73;;;12.30;99.90;;;;;;4897521;29;20220;-91
2023/05/25 09:38:35;;;;;;;5.63;3.90;;;12.20;99.90;;;;;;4880010;29;20232;-90
2023/05/25 09:41:08;;;;;;;7.67;3.80;;;12.20;99.90;;;;;;4889383;29;20266;-92
2023/05/25 09:43:39;;;;;;;8.00;3.60;;;12.20;99.90;;;;;;4894444;29;20236;-91
2023/05/25 09:46:28;;;;;;;8.80;4.20;;;12.10;99.90;;;;;;4884277;29;20234;-91
2023/05/25 09:49:00;;;;;;;11.47;4.70;;;12.10;99.90;;;;;;4870749;29;20234;-92
2023/05/25 09:51:35;;;;;;;6.33;3.93;;;12.10;99.90;;;;;;4894342;29;20281;-90
2023/05/25 09:54:12;;;;;;;7.07;4.23;;;12.00;99.90;;;;;;4901367;29;20241;-91
2023/05/25 09:56:45;;;;;;;6.70;3.83;;;11.90;99.90;;;;;;4892489;29;20857;-90
2023/05/25 09:59:17;;;;;;;7.10;4.07;;;11.90;99.90;;;;;;4883620;29;20210;-91
2023/05/25 10:01:53;;;;;;;7.50;4.33;;;11.90;99.90;;;;;;4879259;29;20214;-91
2023/05/25 10:04:25;;;;;;;7.13;4.00;;;11.90;99.90;;;;;;4885349;29;20210;-91
2023/05/25 10:07:01;;;;;;;7.53;3.97;;;11.90;99.90;;;;;;4877040;29;20305;-91
2023/05/25 10:09:36;;;;;;;7.23;4.17;;;11.70;99.90;;;;;;4877864;29;20293;-90
2023/05/25 10:12:09;;;;;;;8.67;4.20;;;11.70;99.90;;;;;;4891831;29;20202;-91
2023/05/25 10:14:41;;;;;;;9.27;4.17;;;11.70;99.90;;;;;;4875591;29;20206;-90
2023/05/25 10:17:14;;;;;;;11.83;4.50;;;11.70;99.90;;;;;;4883174;29;20222;-90
2023/05/25 10:19:53;;;;;;;8.33;3.70;;;11.70;99.90;;;;;;4880908;29;20199;-89
2023/05/25 10:22:34;;;;;;;10.53;4.00;;;11.70;99.90;;;;;;4879160;29;20206;-90
2023/05/25 10:25:14;;;;;;;11.07;4.63;;;11.70;99.90;;;;;;4879678;29;20320;-90
2023/05/25 10:27:49;;;;;;;7.83;4.23;;;11.60;99.90;;;;;;4864659;29;20203;-91
2023/05/25 10:30:23;;;;;;;10.07;4.30;;;11.60;99.90;;;;;;4880011;29;20698;-91
2023/05/25 10:32:55;;;;;;;12.20;4.67;;;11.60;99.90;;;;;;4880608;29;20561;-92
2023/05/25 10:35:27;;;;;;;6.03;4.00;;;11.60;99.90;;;;;;4874900;29;21047;-91
2023/05/25 10:38:08;;;;;;;6.90;4.30;;;11.50;99.90;;;;;;4863545;29;20246;-92
2023/05/25 10:40:40;;;;;;;7.67;3.70;;;11.50;99.90;;;;;;4870134;29;20227;-90
2023/05/25 10:43:11;;;;;;;6.67;4.10;;;11.60;99.90;;;;;;4900714;29;20218;-92
2023/05/25 10:45:44;;;;;;;9.10;4.13;;;11.50;99.90;;;;;;4885286;29;20717;-91
2023/05/25 10:48:17;;;;;;;9.87;4.30;;;11.50;99.90;;;;;;4542499;29;10000072;-91
2023/05/25 10:50:52;;;;;;;7.90;4.40;;;11.50;99.90;;;;;;4882690;29;20202;-90
2023/05/25 10:53:28;;;;;;;9.93;4.03;;;11.50;99.90;;;;;;4885531;29;20210;-91
2023/05/25 10:56:05;;;;;;;9.17;4.37;;;11.60;99.90;;;;;;4874297;29;20301;-91
2023/05/25 10:58:41;;;;;;;9.10;4.50;;;11.60;99.90;;;;;;4884895;29;20206;-91
2023/05/25 11:01:14;;;;;;;7.77;4.30;;;11.50;99.90;;;;;;4893880;29;20233;-90
2023/05/25 11:03:56;;;;;;;7.27;4.20;;;11.50;99.90;;;;;;4882693;29;20210;-91
2023/05/25 11:07:00;;;;;;;5.83;3.57;;;11.40;99.90;;;;;;4874838;29;20238;-91
2023/05/25 11:09:35;;;;;;;12.10;4.53;;;11.40;99.90;;;;;;4862304;29;20658;-90
2023/05/25 11:12:07;;;;;;;9.23;4.33;;;11.40;99.90;;;;;;4887759;29;20212;-90
2023/05/25 11:14:42;;;;;;;10.20;4.77;;;11.40;99.90;;;;;;4889238;29;20209;-90
2023/05/25 11:17:16;;;;;;;7.73;4.03;;;11.30;99.90;;;;;;4870180;29;20342;-90
2023/05/25 11:19:49;;;;;;;9.23;3.63;;;11.40;99.90;;;;;;4874461;29;20256;-91
2023/05/25 11:22:22;;;;;;;6.40;3.90;;;11.30;99.90;;;;;;4896805;29;20255;-90
2023/05/25 11:24:58;;;;;;;9.07;4.80;;;11.30;99.90;;;;;;4869309;29;20557;-90
2023/05/25 11:27:30;;;;;;;6.73;4.17;;;11.30;99.90;;;;;;4877495;29;20237;-90
2023/05/25 11:30:02;;;;;;;7.43;3.97;;;11.30;99.90;;;;;;4881003;29;21145;-90
2023/05/25 11:32:38;;;;;;;11.20;3.60;;;11.20;99.90;;;;;;4889004;29;20202;-91
2023/05/25 11:35:11;;;;;;;11.23;4.20;;;11.20;99.90;;;;;;4882037;29;20292;-89
2023/05/25 11:37:43;;;;;;;9.63;4.50;;;11.30;99.90;;;;;;4883207;29;20213;-91
2023/05/25 11:40:21;;;;;;;5.40;4.17;;;11.20;99.90;;;;;;4885239;29;20207;-92
2023/05/25 11:42:55;;;;;;;7.80;3.83;;;11.20;99.90;;;;;;4903701;29;20198;-91
2023/05/25 11:45:29;;;;;;;9.80;4.13;;;11.20;99.90;;;;;;4898972;29;20735;-91
2023/05/25 11:48:00;;;;;;;5.97;3.60;;;11.20;99.90;;;;;;4887253;29;20217;-91
2023/05/25 11:50:32;;;;;;;7.27;4.10;;;11.20;99.90;;;;;;4887498;29;20257;-89
2023/05/25 11:53:07;;;;;;;9.27;3.83;;;11.20;99.90;;;;;;4905550;29;20218;-91
2023/05/25 11:55:42;;;;;;;7.43;3.83;;;11.10;99.90;;;;;;4893771;29;20210;-90
2023/05/25 11:58:13;;;;;;;6.57;3.80;;;11.10;99.90;;;;;;4879553;29;20203;-92
2023/05/25 12:00:45;;;;;;;7.43;3.73;;;11.00;99.90;;;;;;4885233;29;20211;-92
2023/05/25 12:03:32;;;;;;;10.17;4.23;;;11.00;99.90;;;;;;4875670;29;20215;-90
2023/05/25 12:06:04;;;;;;;10.10;4.20;;;11.00;99.90;;;;;;4880796;29;20241;-90
2023/05/25 12:08:36;;;;;;;6.40;3.83;;;11.00;99.90;;;;;;4890013;29;20687;-91
2023/05/25 12:11:12;;;;;;;7.93;3.77;;;11.00;99.90;;;;;;4899224;29;20208;-90
2023/05/25 12:13:44;;;;;;;9.20;4.03;;;11.00;99.90;;;;;;4901868;29;20299;-90
2023/05/25 12:16:15;;;;;;;7.90;4.00;;;11.10;99.90;;;;;;4896835;29;20222;-91
2023/05/25 12:18:47;;;;;;;5.43;3.60;;;11.10;99.90;;;;;;4885545;29;20210;-91
2023/05/25 12:21:18;;;;;;;5.47;3.70;;;11.10;99.90;;;;;;4885839;29;20644;-90
2023/05/25 12:23:50;;;;;;;6.97;4.20;;;11.10;99.90;;;;;;4869165;29;20224;-91
2023/05/25 12:26:23;;;;;;;6.07;3.70;;;11.10;99.90;;;;;;4863093;29;20291;-92
2023/05/25 12:29:02;;;;;;;12.43;4.27;;;11.10;99.90;;;;;;4863206;29;20215;-90
2023/05/25 12:31:35;;;;;;;8.63;3.80;;;11.10;99.90;;;;;;4862265;29;20692;-90
2023/05/25 12:34:08;;;;;;;8.80;4.27;;;11.00;99.90;;;;;;4866143;29;20222;-91
2023/05/25 12:36:49;;;;;;;6.97;4.50;;;11.00;99.90;;;;;;4862290;29;20234;-91
2023/05/25 12:39:37;;;;;;;8.50;5.37;;;11.10;99.90;;;;;;4863047;29;20207;-92
2023/05/25 12:42:16;;;;;;;8.77;4.77;;;11.10;99.90;;;;;;4884890;29;20206;-92
2023/05/25 12:44:48;;;;;;;9.03;4.87;;;11.10;99.90;;;;;;4883642;29;20210;-91
2023/05/25 12:47:22;;;;;;;8.50;4.97;;;11.10;99.90;;;;;;4895552;29;20243;-91
2023/05/25 12:49:56;;;;;;;8.17;5.33;;;11.10;99.90;;;;;;4898051;29;20209;-91
2023/05/25 12:52:35;;;;;;;6.63;4.93;;;11.20;99.90;;;;;;4880225;29;20303;-90
2023/05/25 12:55:26;;;;;;;9.53;5.00;;;11.20;99.90;;;;;;4861681;29;20322;-91
2023/05/25 12:58:03;;;;;;;12.63;5.70;;;11.20;99.90;;;;;;4876729;29;20222;-91
2023/05/25 13:00:36;;;;;;;7.90;5.10;;;11.20;99.90;;;;;;4863865;29;20211;-91
2023/05/25 13:03:09;;;;;;;6.73;5.37;;;11.20;99.90;;;;;;4875303;29;20763;-90
2023/05/25 13:05:40;;;;;;;10.80;5.70;;;11.20;99.90;;;;;;4879796;29;20225;-91
2023/05/25 13:08:16;;;;;;;10.47;5.73;;;11.10;99.90;;;;;;4872030;29;20270;-91
2023/05/25 13:10:52;;;;;;;8.83;5.47;;;11.10;99.90;;;;;;4867336;29;20256;-91
2023/05/25 13:13:26;;;;;;;8.93;4.80;;;11.10;99.90;;;;;;4870043;29;20218;-90
2023/05/25 13:15:58;;;;;;;10.67;5.20;;;11.10;99.90;;;;;;4877905;29;20783;-90
2023/05/25 13:18:31;;;;;;;7.03;4.70;;;11.10;99.90;;;;;;4867332;29;20744;-91
2023/05/25 13:21:03;;;;;;;10.23;5.17;;;11.20;99.90;;;;;;4877523;29;20616;-91
2023/05/25 13:23:34;;;;;;;9.40;5.10;;;11.20;99.90;;;;;;4885471;29;20217;-91
2023/05/25 13:26:06;;;;;;;6.73;4.97;;;11.20;99.90;;;;;;4882031;29;20656;-91
2023/05/25 13:28:40;;;;;;;8.97;4.90;;;11.20;99.90;;;;;;4862177;29;20373;-90